TAF KMCW
KMCW 280528Z 2806/2906 32010KT P6SM FEW200 FM290000 17005KT P6SM BKN070=
METAR KMCW
WC KMCW
WS KMCW
WV KMCW